createdAt,value
2018-02-09T00:01:35.338Z,2.68
2018-02-09T00:04:06.403Z,2.71
2018-02-09T00:06:37.450Z,2.70
2018-02-09T00:09:08.514Z,2.74
2018-02-09T00:11:39.575Z,2.81
2018-02-09T00:14:10.612Z,2.94
2018-02-09T00:16:41.683Z,3.07
2018-02-09T00:19:12.779Z,3.18
2018-02-09T00:21:43.872Z,3.29
2018-02-09T00:24:14.938Z,3.39
2018-02-09T00:26:46.025Z,3.51
2018-02-09T00:29:17.067Z,3.58
2018-02-09T00:31:48.186Z,3.61
2018-02-09T00:34:19.230Z,3.61
2018-02-09T00:36:50.310Z,3.63
2018-02-09T00:39:21.423Z,3.67
2018-02-09T00:41:52.468Z,3.68
2018-02-09T00:44:23.506Z,3.73
2018-02-09T00:46:54.555Z,3.75
2018-02-09T00:49:25.623Z,3.83
2018-02-09T00:51:56.705Z,3.86
2018-02-09T00:54:27.772Z,3.89
2018-02-09T00:56:58.872Z,3.87
2018-02-09T00:59:29.951Z,3.84
2018-02-09T01:02:00.987Z,3.75
2018-02-09T01:04:32.078Z,3.65
2018-02-09T01:07:03.179Z,3.60
2018-02-09T01:09:34.311Z,3.57
2018-02-09T01:12:05.370Z,3.53
2018-02-09T01:14:37.089Z,3.48
2018-02-09T01:17:08.201Z,3.42
2018-02-09T01:19:39.864Z,3.36
2018-02-09T01:22:10.886Z,3.30
2018-02-09T01:24:41.961Z,3.30
2018-02-09T01:27:12.998Z,3.32
2018-02-09T01:29:43.998Z,3.29
2018-02-09T01:32:15.050Z,3.28
2018-02-09T01:34:46.114Z,3.27
2018-02-09T01:37:17.218Z,3.30
2018-02-09T01:39:48.297Z,3.27
2018-02-09T01:42:19.369Z,3.14
2018-02-09T01:44:50.529Z,2.99
2018-02-09T01:47:21.607Z,2.95
2018-02-09T01:50:05.204Z,2.99
2018-02-09T01:52:36.350Z,2.99
2018-02-09T01:55:07.409Z,3.02
2018-02-09T01:57:38.493Z,3.06
2018-02-09T02:00:09.548Z,3.09
2018-02-09T02:02:47.647Z,3.16
2018-02-09T02:05:18.685Z,3.11
2018-02-09T02:07:49.783Z,3.10
2018-02-09T02:10:20.857Z,3.16
2018-02-09T02:12:51.917Z,3.29
2018-02-09T02:15:23.011Z,3.39
2018-02-09T02:17:54.125Z,3.48
2018-02-09T02:20:25.250Z,3.57
2018-02-09T02:22:56.290Z,3.51
2018-02-09T02:25:27.385Z,3.48
2018-02-09T02:27:58.475Z,3.56
2018-02-09T02:30:29.563Z,3.50
2018-02-09T02:33:00.659Z,3.51
2018-02-09T02:35:31.708Z,3.59
2018-02-09T02:38:02.786Z,3.67
2018-02-09T02:40:33.839Z,3.76
2018-02-09T02:43:04.923Z,3.83
2018-02-09T02:45:36.005Z,3.82
2018-02-09T02:48:07.074Z,3.77
2018-02-09T02:50:38.185Z,3.73
2018-02-09T02:53:09.268Z,3.72
2018-02-09T02:55:40.351Z,3.70
2018-02-09T02:58:11.410Z,3.73
2018-02-09T03:00:42.503Z,3.74
2018-02-09T03:03:13.585Z,3.62
2018-02-09T03:05:44.669Z,3.49
2018-02-09T03:08:15.739Z,3.50
2018-02-09T03:10:46.862Z,3.58
2018-02-09T03:13:17.936Z,3.63
2018-02-09T03:15:49.013Z,3.70
2018-02-09T03:18:20.114Z,3.74
2018-02-09T03:20:51.173Z,3.76
2018-02-09T03:23:22.257Z,3.80
2018-02-09T03:25:53.291Z,3.83
2018-02-09T03:28:24.377Z,3.89
2018-02-09T03:30:55.434Z,3.72
2018-02-09T03:33:26.466Z,3.48
2018-02-09T03:35:57.525Z,3.43
2018-02-09T03:38:28.598Z,3.48
2018-02-09T03:40:59.666Z,3.55
2018-02-09T03:43:30.717Z,3.58
2018-02-09T03:46:01.817Z,3.61
2018-02-09T03:48:32.873Z,3.66
2018-02-09T03:51:04.435Z,3.62
2018-02-09T03:53:35.475Z,3.59
2018-02-09T03:56:06.536Z,3.49
2018-02-09T03:58:38.196Z,3.43
2018-02-09T04:01:09.259Z,3.45
2018-02-09T04:03:40.336Z,3.50
2018-02-09T04:06:11.424Z,3.49
2018-02-09T04:08:42.515Z,3.49
2018-02-09T04:11:13.627Z,3.51
2018-02-09T04:13:44.691Z,3.50
2018-02-09T04:16:15.756Z,3.40
2018-02-09T04:18:46.858Z,3.40
2018-02-09T04:21:18.013Z,3.48
2018-02-09T04:23:49.080Z,3.49
2018-02-09T04:26:20.139Z,3.48
2018-02-09T04:28:51.236Z,3.51
2018-02-09T04:31:22.335Z,3.57
2018-02-09T04:33:53.421Z,3.50
2018-02-09T04:36:24.466Z,3.50
2018-02-09T04:38:55.603Z,3.55
2018-02-09T04:41:26.699Z,3.61
2018-02-09T04:43:57.795Z,3.63
2018-02-09T04:46:28.819Z,3.63
2018-02-09T04:49:01.340Z,3.69
2018-02-09T04:51:32.411Z,3.72
2018-02-09T04:54:03.452Z,3.73
2018-02-09T04:56:34.482Z,3.70
2018-02-09T04:59:05.525Z,3.65
2018-02-09T05:01:36.623Z,3.66
2018-02-09T05:04:07.657Z,3.56
2018-02-09T05:06:38.825Z,3.56
2018-02-09T05:09:09.898Z,3.63
2018-02-09T05:11:41.010Z,3.71
2018-02-09T05:14:12.123Z,3.68
2018-02-09T05:16:43.191Z,3.57
2018-02-09T05:19:14.221Z,3.53
2018-02-09T05:21:45.374Z,3.63
2018-02-09T05:24:16.487Z,3.73
2018-02-09T05:26:47.592Z,3.80
2018-02-09T05:29:18.656Z,3.74
2018-02-09T05:31:49.724Z,3.78
2018-02-09T05:34:20.775Z,3.78
2018-02-09T05:36:51.834Z,3.76
2018-02-09T05:39:22.906Z,3.82
2018-02-09T05:41:53.987Z,3.73
2018-02-09T05:44:25.067Z,3.68
2018-02-09T05:46:56.167Z,3.71
2018-02-09T05:49:27.239Z,3.65
2018-02-09T05:51:58.301Z,3.59
2018-02-09T05:54:29.353Z,3.62
2018-02-09T05:57:00.444Z,3.67
2018-02-09T05:59:31.562Z,3.64
2018-02-09T06:02:02.711Z,3.62
2018-02-09T06:04:33.767Z,3.59
2018-02-09T06:07:04.815Z,3.59
2018-02-09T06:09:35.912Z,3.53
2018-02-09T06:12:07.003Z,3.44
2018-02-09T06:14:38.080Z,3.50
2018-02-09T06:17:09.144Z,3.60
2018-02-09T06:19:40.219Z,3.69
2018-02-09T06:22:11.289Z,3.72
2018-02-09T06:24:42.420Z,3.76
2018-02-09T06:27:13.536Z,3.78
2018-02-09T06:29:44.611Z,3.85
2018-02-09T06:32:15.731Z,3.96
2018-02-09T06:34:46.798Z,4.03
2018-02-09T06:37:17.846Z,4.03
2018-02-09T06:39:48.917Z,4.01
2018-02-09T06:42:20.001Z,3.97
2018-02-09T06:44:51.091Z,4.00
2018-02-09T06:47:22.264Z,4.08
2018-02-09T06:49:53.340Z,4.12
2018-02-09T06:52:24.450Z,4.21
2018-02-09T06:54:55.478Z,4.22
2018-02-09T06:57:26.503Z,4.20
2018-02-09T06:59:57.604Z,4.23
2018-02-09T07:02:28.675Z,4.14
2018-02-09T07:04:59.755Z,4.15
2018-02-09T07:07:30.788Z,4.31
2018-02-09T07:10:01.876Z,4.39
2018-02-09T07:12:32.954Z,4.30
2018-02-09T07:15:04.020Z,4.41
2018-02-09T07:17:35.116Z,4.52
2018-02-09T07:20:06.324Z,4.64
2018-02-09T07:22:37.420Z,4.66
2018-02-09T07:25:08.484Z,4.76
2018-02-09T07:27:39.590Z,4.80
2018-02-09T07:30:10.678Z,4.80
2018-02-09T07:32:41.789Z,4.60
2018-02-09T07:35:12.856Z,4.62
2018-02-09T07:37:43.925Z,4.64
2018-02-09T07:40:15.011Z,4.69
2018-02-09T07:42:46.070Z,4.88
2018-02-09T07:45:17.095Z,4.89
2018-02-09T07:47:48.163Z,4.94
2018-02-09T07:50:19.229Z,5.03
2018-02-09T07:52:50.309Z,5.05
2018-02-09T07:55:21.390Z,4.96
2018-02-09T07:57:52.504Z,5.01
2018-02-09T08:00:23.558Z,5.15
2018-02-09T08:02:54.640Z,5.41
2018-02-09T08:05:25.770Z,5.46
2018-02-09T08:07:56.817Z,5.42
2018-02-09T08:10:27.895Z,5.39
2018-02-09T08:12:58.982Z,5.49
2018-02-09T08:15:30.135Z,5.65
2018-02-09T08:18:01.211Z,5.60
2018-02-09T08:20:32.359Z,5.48
2018-02-09T08:23:03.446Z,5.66
2018-02-09T08:25:34.532Z,5.69
2018-02-09T08:28:05.631Z,5.84
2018-02-09T08:30:36.719Z,5.95
2018-02-09T08:33:07.808Z,5.94
2018-02-09T08:35:38.873Z,5.72
2018-02-09T08:38:09.980Z,5.88
2018-02-09T08:40:41.071Z,6.28
2018-02-09T08:43:12.096Z,6.38
2018-02-09T08:45:43.181Z,6.38
2018-02-09T08:48:14.225Z,6.66
2018-02-09T08:50:45.311Z,6.89
2018-02-09T08:53:16.391Z,7.05
2018-02-09T08:55:47.490Z,6.82
2018-02-09T08:58:18.530Z,6.87
2018-02-09T09:00:49.616Z,7.12
2018-02-09T09:03:20.731Z,7.28
2018-02-09T09:05:51.808Z,7.30
2018-02-09T09:08:22.887Z,7.56
2018-02-09T09:10:53.990Z,7.58
2018-02-09T09:13:25.065Z,7.64
2018-02-09T09:15:56.222Z,7.71
2018-02-09T09:18:27.342Z,7.77
2018-02-09T09:20:58.466Z,7.82
2018-02-09T09:23:29.550Z,7.91
2018-02-09T09:26:00.645Z,7.97
2018-02-09T09:28:31.677Z,8.14
2018-02-09T09:31:02.876Z,8.22
2018-02-09T09:33:33.955Z,8.35
2018-02-09T09:36:05.063Z,8.44
2018-02-09T09:38:36.138Z,8.38
2018-02-09T09:41:07.264Z,8.64
2018-02-09T09:43:38.324Z,8.93
2018-02-09T09:46:09.387Z,9.12
2018-02-09T09:48:40.478Z,9.18
2018-02-09T09:51:11.664Z,9.34
2018-02-09T09:53:42.747Z,9.35
2018-02-09T09:56:13.852Z,9.34
2018-02-09T09:58:44.901Z,9.54
2018-02-09T10:01:21.043Z,9.38
2018-02-09T10:03:52.118Z,9.51
2018-02-09T10:06:23.170Z,9.53
2018-02-09T10:08:54.243Z,9.69
2018-02-09T10:11:25.329Z,9.87
2018-02-09T10:13:56.409Z,9.86
2018-02-09T10:16:27.486Z,9.90
2018-02-09T10:18:58.619Z,10.05
2018-02-09T10:21:29.671Z,9.98
2018-02-09T10:24:00.743Z,9.63
2018-02-09T10:26:31.888Z,9.63
2018-02-09T10:29:03.512Z,9.75
2018-02-09T10:31:34.601Z,9.84
2018-02-09T10:34:05.635Z,9.82
2018-02-09T10:36:36.690Z,10.00
2018-02-09T10:39:07.832Z,10.03
2018-02-09T10:41:38.949Z,10.19
2018-02-09T10:44:10.056Z,10.23
2018-02-09T10:46:41.152Z,10.22
2018-02-09T10:49:12.227Z,10.16
2018-02-09T10:51:43.321Z,10.06
2018-02-09T10:54:14.438Z,9.95
2018-02-09T10:56:45.502Z,10.02
2018-02-09T10:59:16.639Z,10.02
2018-02-09T11:01:47.713Z,10.24
2018-02-09T11:04:18.851Z,10.43
2018-02-09T11:06:49.947Z,10.39
2018-02-09T11:09:27.078Z,10.39
2018-02-09T11:11:58.228Z,10.19
2018-02-09T11:14:29.297Z,10.07
2018-02-09T11:17:00.380Z,10.28
2018-02-09T11:19:31.465Z,10.50
2018-02-09T11:22:02.548Z,10.61
2018-02-09T11:24:33.594Z,10.45
2018-02-09T11:27:04.707Z,10.24
2018-02-09T11:29:35.809Z,10.19
2018-02-09T11:32:06.950Z,9.96
2018-02-09T11:34:38.036Z,9.77
2018-02-09T11:37:09.125Z,9.48
2018-02-09T11:39:40.212Z,9.39
2018-02-09T11:42:11.313Z,9.29
2018-02-09T11:44:42.390Z,9.40
2018-02-09T11:47:13.506Z,9.67
2018-02-09T11:49:44.583Z,9.82
2018-02-09T11:52:15.678Z,9.80
2018-02-09T11:54:46.806Z,9.75
2018-02-09T11:57:17.845Z,9.67
2018-02-09T11:59:48.914Z,9.65
2018-02-09T12:02:19.998Z,9.51
2018-02-09T12:04:51.056Z,9.28
2018-02-09T12:07:22.133Z,9.04
2018-02-09T12:09:53.180Z,8.75
2018-02-09T12:12:24.402Z,8.53
2018-02-09T12:14:55.534Z,8.59
2018-02-09T12:17:26.627Z,8.44
2018-02-09T12:19:57.658Z,8.37
2018-02-09T12:22:28.738Z,8.31
2018-02-09T12:24:59.811Z,8.23
2018-02-09T12:27:30.910Z,8.19
2018-02-09T12:30:02.054Z,8.27
2018-02-09T12:32:33.090Z,8.36
2018-02-09T12:35:04.313Z,8.14
2018-02-09T12:37:35.422Z,8.06
2018-02-09T12:40:06.488Z,8.18
2018-02-09T12:42:37.601Z,8.01
2018-02-09T12:45:08.696Z,7.94
2018-02-09T12:47:39.826Z,7.87
2018-02-09T12:50:10.855Z,7.92
2018-02-09T12:52:41.982Z,7.98
2018-02-09T12:55:13.064Z,7.75
2018-02-09T12:57:44.201Z,7.70
2018-02-09T13:00:15.253Z,7.70
2018-02-09T13:02:46.421Z,7.51
2018-02-09T13:05:17.471Z,7.57
2018-02-09T13:07:48.561Z,7.46
2018-02-09T13:10:19.627Z,7.60
2018-02-09T13:13:02.888Z,7.62
2018-02-09T13:15:34.053Z,7.59
2018-02-09T13:18:05.136Z,7.61
2018-02-09T13:20:36.177Z,7.76
2018-02-09T13:23:19.534Z,7.67
2018-02-09T13:25:50.593Z,7.55
2018-02-09T13:28:34.041Z,7.62
2018-02-09T13:31:05.154Z,7.67
2018-02-09T13:33:36.421Z,7.83
2018-02-09T13:36:07.474Z,7.67
2018-02-09T13:38:38.560Z,7.52
2018-02-09T13:41:09.620Z,7.43
2018-02-09T13:43:40.713Z,7.30
2018-02-09T13:46:11.761Z,7.17
2018-02-09T13:48:42.822Z,7.18
2018-02-09T13:51:13.964Z,7.13
2018-02-09T13:53:46.605Z,7.14
2018-02-09T13:56:17.646Z,7.05
2018-02-09T13:58:48.747Z,7.05
2018-02-09T14:01:19.861Z,7.25
2018-02-09T14:03:50.966Z,7.13
2018-02-09T14:06:22.114Z,7.12
2018-02-09T14:08:53.158Z,7.10
2018-02-09T14:11:24.203Z,7.14
2018-02-09T14:13:55.272Z,7.21
2018-02-09T14:16:26.362Z,7.11
2018-02-09T14:18:57.483Z,7.12
2018-02-09T14:21:28.593Z,7.04
2018-02-09T14:23:59.865Z,6.94
2018-02-09T14:26:30.984Z,6.89
2018-02-09T14:29:02.086Z,6.92
2018-02-09T14:31:33.201Z,6.80
2018-02-09T14:34:04.854Z,6.71
2018-02-09T14:36:35.934Z,6.69
2018-02-09T14:39:07.009Z,6.60
2018-02-09T14:41:38.663Z,6.52
2018-02-09T14:44:09.731Z,6.43
2018-02-09T14:46:40.833Z,6.45
2018-02-09T14:49:11.908Z,6.56
2018-02-09T14:51:42.962Z,6.56
2018-02-09T14:54:14.077Z,6.65
2018-02-09T14:56:45.134Z,6.73
2018-02-09T14:59:16.337Z,6.72
2018-02-09T15:01:47.461Z,6.65
2018-02-09T15:04:18.571Z,6.50
2018-02-09T15:06:49.641Z,6.37
2018-02-09T15:09:20.740Z,6.27
2018-02-09T15:11:51.824Z,6.10
2018-02-09T15:14:22.891Z,5.92
2018-02-09T15:16:53.943Z,5.54
2018-02-09T15:19:25.139Z,5.55
2018-02-09T15:21:56.930Z,5.59
2018-02-09T15:24:28.154Z,5.72
2018-02-09T15:26:59.295Z,5.72
2018-02-09T15:29:30.374Z,5.66
2018-02-09T15:32:01.483Z,5.63
2018-02-09T15:34:32.531Z,5.52
2018-02-09T15:37:03.714Z,5.57
2018-02-09T15:39:34.790Z,5.70
2018-02-09T15:42:06.054Z,5.78
2018-02-09T15:44:37.959Z,5.68
2018-02-09T15:47:09.091Z,5.64
2018-02-09T15:49:41.088Z,5.58
2018-02-09T15:52:12.192Z,5.51
2018-02-09T15:54:43.974Z,5.41
2018-02-09T15:57:15.124Z,5.41
2018-02-09T15:59:46.186Z,5.47
2018-02-09T16:04:58.794Z,5.50
2018-02-09T16:07:29.876Z,5.53
2018-02-09T16:10:01.493Z,5.52
2018-02-09T16:12:32.660Z,5.46
2018-02-09T16:15:04.398Z,5.49
2018-02-09T16:17:35.629Z,5.39
2018-02-09T16:20:06.716Z,5.33
2018-02-09T16:22:37.858Z,5.37
2018-02-09T16:25:08.934Z,5.41
2018-02-09T16:27:40.006Z,5.44
2018-02-09T16:30:11.077Z,5.45
2018-02-09T16:32:42.196Z,5.27
2018-02-09T16:35:13.256Z,5.16
2018-02-09T16:37:44.306Z,5.11
2018-02-09T16:40:15.346Z,5.12
2018-02-09T16:42:46.552Z,5.01
2018-02-09T16:45:17.632Z,5.02
2018-02-09T16:47:48.757Z,5.09
2018-02-09T16:50:19.828Z,5.14
2018-02-09T16:52:50.940Z,5.24
2018-02-09T16:55:21.992Z,5.32
2018-02-09T16:57:53.054Z,5.38
2018-02-09T17:00:24.108Z,5.46
2018-02-09T17:02:55.172Z,5.44
2018-02-09T17:05:26.207Z,5.45
2018-02-09T17:07:57.324Z,5.36
2018-02-09T17:10:28.424Z,5.27
2018-02-09T17:12:59.538Z,5.25
2018-02-09T17:15:30.611Z,5.17
2018-02-09T17:18:01.724Z,5.14
2018-02-09T17:20:32.795Z,5.06
2018-02-09T17:23:03.826Z,5.05
2018-02-09T17:25:34.883Z,4.92
2018-02-09T17:28:06.062Z,4.93
2018-02-09T17:30:37.134Z,4.97
2018-02-09T17:33:08.182Z,4.92
2018-02-09T17:35:39.284Z,4.87
2018-02-09T17:38:10.380Z,4.83
2018-02-09T17:40:41.448Z,4.82
2018-02-09T17:43:12.520Z,4.87
2018-02-09T17:45:43.573Z,4.89
2018-02-09T17:48:14.654Z,4.93
2018-02-09T17:50:45.702Z,4.85
2018-02-09T17:53:16.802Z,4.83
2018-02-09T17:55:47.875Z,4.81
2018-02-09T17:58:18.966Z,4.79
2018-02-09T18:00:50.075Z,4.86
2018-02-09T18:03:21.608Z,4.94
2018-02-09T18:05:52.739Z,5.05
2018-02-09T18:08:23.832Z,5.04
2018-02-09T18:10:54.914Z,5.09
2018-02-09T18:13:26.045Z,5.12
2018-02-09T18:15:57.138Z,5.14
2018-02-09T18:18:28.218Z,5.16
2018-02-09T18:20:59.293Z,5.14
2018-02-09T18:23:30.339Z,5.15
2018-02-09T18:26:01.426Z,5.17
2018-02-09T18:28:32.523Z,5.17
2018-02-09T18:31:03.621Z,5.16
2018-02-09T18:33:34.660Z,5.17
2018-02-09T18:36:05.744Z,5.14
2018-02-09T18:38:36.835Z,5.13
2018-02-09T18:41:07.885Z,5.14
2018-02-09T18:43:38.932Z,5.14
2018-02-09T18:46:10.155Z,5.10
2018-02-09T18:48:41.247Z,5.13
2018-02-09T18:51:12.322Z,5.18
2018-02-09T18:53:44.140Z,5.16
2018-02-09T18:56:15.213Z,5.13
2018-02-09T18:58:46.313Z,5.12
2018-02-09T19:01:17.362Z,5.09
2018-02-09T19:03:48.455Z,5.05
2018-02-09T19:06:19.580Z,5.01
2018-02-09T19:08:50.642Z,5.03
2018-02-09T19:11:21.702Z,5.03
2018-02-09T19:13:52.755Z,4.99
2018-02-09T19:16:23.907Z,4.97
2018-02-09T19:18:54.958Z,5.03
2018-02-09T19:21:26.037Z,5.09
2018-02-09T19:23:57.113Z,5.09
2018-02-09T19:26:28.167Z,5.09
2018-02-09T19:28:59.222Z,4.98
2018-02-09T19:31:30.325Z,5.03
2018-02-09T19:34:01.435Z,5.12
2018-02-09T19:36:32.502Z,5.15
2018-02-09T19:39:03.658Z,5.09
2018-02-09T19:41:34.686Z,5.05
2018-02-09T19:44:05.737Z,4.92
2018-02-09T19:46:36.826Z,4.84
2018-02-09T19:49:07.930Z,4.93
2018-02-09T19:51:38.999Z,5.05
2018-02-09T19:54:10.042Z,5.06
2018-02-09T19:56:41.094Z,5.13
2018-02-09T19:59:12.158Z,5.12
2018-02-09T20:01:43.243Z,5.04
2018-02-09T20:04:14.343Z,5.03
2018-02-09T20:06:45.412Z,4.98
2018-02-09T20:09:16.473Z,4.99
2018-02-09T20:11:47.571Z,5.02
2018-02-09T20:14:18.614Z,5.08
2018-02-09T20:16:49.744Z,5.13
2018-02-09T20:19:20.781Z,5.15
2018-02-09T20:21:51.861Z,5.19
2018-02-09T20:24:22.898Z,5.16
2018-02-09T20:26:54.003Z,5.02
2018-02-09T20:32:31.276Z,4.93
2018-02-09T20:35:02.332Z,4.93
2018-02-09T20:37:33.393Z,4.95
2018-02-09T20:40:04.462Z,5.00
2018-02-09T20:42:35.557Z,4.94
2018-02-09T20:45:06.614Z,4.89
2018-02-09T20:47:37.674Z,4.94
2018-02-09T20:50:09.341Z,5.02
2018-02-09T20:52:40.356Z,5.05
2018-02-09T20:55:11.459Z,5.08
2018-02-09T20:57:42.509Z,5.14
2018-02-09T21:00:20.636Z,5.09
2018-02-09T21:02:51.706Z,5.11
2018-02-09T21:05:22.802Z,5.05
2018-02-09T21:07:53.856Z,5.10
2018-02-09T21:10:25.707Z,5.05
2018-02-09T21:12:56.778Z,5.11
2018-02-09T21:15:27.924Z,5.19
2018-02-09T21:17:59.016Z,5.22
2018-02-09T21:20:30.080Z,5.24
2018-02-09T21:23:01.197Z,5.18
2018-02-09T21:25:32.267Z,5.06
2018-02-09T21:28:03.372Z,4.94
2018-02-09T21:30:34.444Z,4.89
2018-02-09T21:33:05.487Z,4.91
2018-02-09T21:35:36.536Z,4.95
2018-02-09T21:38:07.620Z,4.86
2018-02-09T21:40:38.689Z,4.83
2018-02-09T21:43:09.727Z,4.78
2018-02-09T21:45:40.921Z,4.67
2018-02-09T21:48:11.963Z,4.61
2018-02-09T21:50:43.124Z,4.64
2018-02-09T21:53:15.008Z,4.69
2018-02-09T21:55:46.124Z,4.70
2018-02-09T21:58:17.190Z,4.78
2018-02-09T22:00:48.281Z,4.86
2018-02-09T22:03:19.360Z,4.81
2018-02-09T22:05:50.452Z,4.83
2018-02-09T22:08:21.486Z,4.84
2018-02-09T22:10:52.531Z,4.80
2018-02-09T22:13:23.585Z,4.76
2018-02-09T22:15:54.658Z,4.76
2018-02-09T22:18:25.688Z,4.84
2018-02-09T22:20:56.779Z,4.87
2018-02-09T22:23:27.861Z,4.84
2018-02-09T22:25:58.995Z,4.77
2018-02-09T22:28:30.118Z,4.76
2018-02-09T22:31:01.152Z,4.73
2018-02-09T22:33:32.214Z,4.73
2018-02-09T22:36:03.269Z,4.71
2018-02-09T22:38:34.367Z,4.73
2018-02-09T22:41:05.428Z,4.75
2018-02-09T22:43:36.491Z,4.68
2018-02-09T22:46:07.505Z,4.70
2018-02-09T22:48:38.592Z,4.65
2018-02-09T22:51:09.709Z,4.61
2018-02-09T22:53:40.735Z,4.59
2018-02-09T22:56:13.232Z,4.58
2018-02-09T22:58:44.299Z,4.59
2018-02-09T23:01:15.414Z,4.64
2018-02-09T23:03:46.473Z,4.71
2018-02-09T23:06:17.540Z,4.74
2018-02-09T23:08:48.653Z,4.66
2018-02-09T23:11:19.752Z,4.65
2018-02-09T23:13:50.840Z,4.64
2018-02-09T23:16:21.923Z,4.56
2018-02-09T23:18:52.992Z,4.57
2018-02-09T23:21:24.073Z,4.61
2018-02-09T23:23:55.111Z,4.60
2018-02-09T23:26:26.156Z,4.56
2018-02-09T23:28:57.266Z,4.46
2018-02-09T23:31:28.335Z,4.50
2018-02-09T23:33:59.366Z,4.46
2018-02-09T23:36:30.426Z,4.53
2018-02-09T23:39:01.529Z,4.53
2018-02-09T23:41:32.578Z,4.61
2018-02-09T23:44:03.688Z,4.68
2018-02-09T23:46:34.812Z,4.61
2018-02-09T23:49:05.893Z,4.64
2018-02-09T23:51:36.935Z,4.63
2018-02-09T23:54:08.046Z,4.65
2018-02-09T23:56:39.111Z,4.66
2018-02-09T23:59:10.156Z,4.65
